sensor_id;sensor_type;location;lat;lon;timestamp;temperature;humidity
69084;SHT31;56185;48.526;9.044;2023-12-04T00:01:33;-5.09;82.99
69084;SHT31;56185;48.526;9.044;2023-12-04T00:03:58;-5.31;83.22
69084;SHT31;56185;48.526;9.044;2023-12-04T00:06:24;-5.18;82.14
69084;SHT31;56185;48.526;9.044;2023-12-04T00:08:49;-5.46;83.45
69084;SHT31;56185;48.526;9.044;2023-12-04T00:11:14;-5.55;84.76
69084;SHT31;56185;48.526;9.044;2023-12-04T00:13:39;-5.62;84.12
69084;SHT31;56185;48.526;9.044;2023-12-04T00:16:05;-5.60;84.20
69084;SHT31;56185;48.526;9.044;2023-12-04T00:18:30;-5.56;83.92
69084;SHT31;56185;48.526;9.044;2023-12-04T00:20:55;-5.66;84.10
69084;SHT31;56185;48.526;9.044;2023-12-04T00:23:21;-5.52;83.75
69084;SHT31;56185;48.526;9.044;2023-12-04T00:25:46;-5.52;83.55
69084;SHT31;56185;48.526;9.044;2023-12-04T00:28:13;-5.51;83.72
69084;SHT31;56185;48.526;9.044;2023-12-04T00:30:38;-5.42;83.29
69084;SHT31;56185;48.526;9.044;2023-12-04T00:33:04;-5.63;84.60
69084;SHT31;56185;48.526;9.044;2023-12-04T00:35:29;-5.58;84.93
69084;SHT31;56185;48.526;9.044;2023-12-04T00:37:54;-5.48;84.26
69084;SHT31;56185;48.526;9.044;2023-12-04T00:40:19;-5.52;84.47
69084;SHT31;56185;48.526;9.044;2023-12-04T00:42:45;-5.60;84.43
69084;SHT31;56185;48.526;9.044;2023-12-04T00:45:10;-5.56;84.91
69084;SHT31;56185;48.526;9.044;2023-12-04T00:47:35;-5.52;84.95
69084;SHT31;56185;48.526;9.044;2023-12-04T00:50:00;-5.33;84.61
69084;SHT31;56185;48.526;9.044;2023-12-04T00:52:30;-5.35;84.63
69084;SHT31;56185;48.526;9.044;2023-12-04T00:54:55;-5.35;85.71
69084;SHT31;56185;48.526;9.044;2023-12-04T00:57:20;-5.33;85.46
69084;SHT31;56185;48.526;9.044;2023-12-04T00:59:46;-5.46;85.13
69084;SHT31;56185;48.526;9.044;2023-12-04T01:02:11;-5.39;85.64
69084;SHT31;56185;48.526;9.044;2023-12-04T01:04:40;-5.52;85.68
69084;SHT31;56185;48.526;9.044;2023-12-04T01:07:05;-5.42;85.32
69084;SHT31;56185;48.526;9.044;2023-12-04T01:09:30;-5.16;84.40
69084;SHT31;56185;48.526;9.044;2023-12-04T01:11:55;-5.14;83.39
69084;SHT31;56185;48.526;9.044;2023-12-04T01:14:21;-5.16;82.14
69084;SHT31;56185;48.526;9.044;2023-12-04T01:16:47;-5.33;82.68
69084;SHT31;56185;48.526;9.044;2023-12-04T01:19:14;-5.35;82.70
69084;SHT31;56185;48.526;9.044;2023-12-04T01:21:39;-5.38;82.45
69084;SHT31;56185;48.526;9.044;2023-12-04T01:24:05;-5.31;81.26
69084;SHT31;56185;48.526;9.044;2023-12-04T01:26:32;-5.35;80.95
69084;SHT31;56185;48.526;9.044;2023-12-04T01:28:58;-5.66;82.30
69084;SHT31;56185;48.526;9.044;2023-12-04T01:31:27;-5.62;81.82
69084;SHT31;56185;48.526;9.044;2023-12-04T01:33:53;-5.79;82.67
69084;SHT31;56185;48.526;9.044;2023-12-04T01:36:18;-5.76;83.48
69084;SHT31;56185;48.526;9.044;2023-12-04T01:38:43;-5.80;83.00
69084;SHT31;56185;48.526;9.044;2023-12-04T01:41:15;-5.80;82.54
69084;SHT31;56185;48.526;9.044;2023-12-04T01:43:41;-5.83;82.99
69084;SHT31;56185;48.526;9.044;2023-12-04T01:46:06;-5.63;81.41
69084;SHT31;56185;48.526;9.044;2023-12-04T01:48:32;-5.70;81.95
69084;SHT31;56185;48.526;9.044;2023-12-04T01:50:58;-5.77;81.71
69084;SHT31;56185;48.526;9.044;2023-12-04T01:53:25;-5.77;81.19
69084;SHT31;56185;48.526;9.044;2023-12-04T01:55:55;-5.70;81.38
69084;SHT31;56185;48.526;9.044;2023-12-04T01:58:21;-5.87;82.12
69084;SHT31;56185;48.526;9.044;2023-12-04T02:00:46;-5.87;82.18
69084;SHT31;56185;48.526;9.044;2023-12-04T02:03:12;-5.97;82.59
69084;SHT31;56185;48.526;9.044;2023-12-04T02:05:37;-6.03;82.18
69084;SHT31;56185;48.526;9.044;2023-12-04T02:08:03;-6.01;81.98
69084;SHT31;56185;48.526;9.044;2023-12-04T02:10:29;-6.14;82.19
69084;SHT31;56185;48.526;9.044;2023-12-04T02:12:54;-6.18;82.69
69084;SHT31;56185;48.526;9.044;2023-12-04T02:15:33;-6.21;82.67
69084;SHT31;56185;48.526;9.044;2023-12-04T02:17:58;-6.17;82.40
69084;SHT31;56185;48.526;9.044;2023-12-04T02:20:33;-6.26;83.41
69084;SHT31;56185;48.526;9.044;2023-12-04T02:23:01;-6.32;82.79
69084;SHT31;56185;48.526;9.044;2023-12-04T02:25:26;-6.31;83.11
69084;SHT31;56185;48.526;9.044;2023-12-04T02:27:53;-6.24;83.06
69084;SHT31;56185;48.526;9.044;2023-12-04T02:30:21;-6.25;82.75
69084;SHT31;56185;48.526;9.044;2023-12-04T02:32:48;-6.14;82.51
69084;SHT31;56185;48.526;9.044;2023-12-04T02:35:14;-6.25;82.75
69084;SHT31;56185;48.526;9.044;2023-12-04T02:37:41;-6.32;83.93
69084;SHT31;56185;48.526;9.044;2023-12-04T02:40:07;-6.28;82.75
69084;SHT31;56185;48.526;9.044;2023-12-04T02:42:33;-6.08;83.07
69084;SHT31;56185;48.526;9.044;2023-12-04T02:44:59;-6.01;83.04
69084;SHT31;56185;48.526;9.044;2023-12-04T02:47:24;-6.22;82.55
69084;SHT31;56185;48.526;9.044;2023-12-04T02:49:49;-6.36;83.23
69084;SHT31;56185;48.526;9.044;2023-12-04T02:52:15;-6.42;83.29
69084;SHT31;56185;48.526;9.044;2023-12-04T02:54:40;-6.34;83.05
69084;SHT31;56185;48.526;9.044;2023-12-04T02:57:05;-6.21;83.70
69084;SHT31;56185;48.526;9.044;2023-12-04T02:59:30;-6.04;82.70
69084;SHT31;56185;48.526;9.044;2023-12-04T03:01:56;-5.95;82.45
69084;SHT31;56185;48.526;9.044;2023-12-04T03:04:21;-5.98;82.28
69084;SHT31;56185;48.526;9.044;2023-12-04T03:06:47;-6.07;81.86
69084;SHT31;56185;48.526;9.044;2023-12-04T03:09:13;-6.15;82.89
69084;SHT31;56185;48.526;9.044;2023-12-04T03:11:42;-6.18;82.53
69084;SHT31;56185;48.526;9.044;2023-12-04T03:14:07;-6.05;82.26
69084;SHT31;56185;48.526;9.044;2023-12-04T03:16:32;-6.00;82.82
69084;SHT31;56185;48.526;9.044;2023-12-04T03:18:58;-6.07;82.05
69084;SHT31;56185;48.526;9.044;2023-12-04T03:21:23;-6.07;82.40
69084;SHT31;56185;48.526;9.044;2023-12-04T03:23:48;-6.00;82.32
69084;SHT31;56185;48.526;9.044;2023-12-04T03:26:14;-5.83;82.37
69084;SHT31;56185;48.526;9.044;2023-12-04T03:28:39;-5.91;81.68
69084;SHT31;56185;48.526;9.044;2023-12-04T03:31:04;-5.83;82.13
69084;SHT31;56185;48.526;9.044;2023-12-04T03:33:33;-5.81;82.10
69084;SHT31;56185;48.526;9.044;2023-12-04T03:36:01;-5.73;81.00
69084;SHT31;56185;48.526;9.044;2023-12-04T03:38:26;-5.73;81.09
69084;SHT31;56185;48.526;9.044;2023-12-04T03:40:51;-5.87;81.05
69084;SHT31;56185;48.526;9.044;2023-12-04T03:43:17;-5.86;80.52
69084;SHT31;56185;48.526;9.044;2023-12-04T03:45:42;-5.80;80.92
69084;SHT31;56185;48.526;9.044;2023-12-04T03:48:08;-5.95;80.27
69084;SHT31;56185;48.526;9.044;2023-12-04T03:50:33;-6.00;80.96
69084;SHT31;56185;48.526;9.044;2023-12-04T03:52:58;-5.94;81.59
69084;SHT31;56185;48.526;9.044;2023-12-04T03:55:23;-6.10;81.32
69084;SHT31;56185;48.526;9.044;2023-12-04T03:57:49;-6.03;81.05
69084;SHT31;56185;48.526;9.044;2023-12-04T04:00:14;-5.98;81.58
69084;SHT31;56185;48.526;9.044;2023-12-04T04:02:40;-5.86;80.44
69084;SHT31;56185;48.526;9.044;2023-12-04T04:05:06;-5.90;80.54
69084;SHT31;56185;48.526;9.044;2023-12-04T04:07:31;-5.80;80.64
69084;SHT31;56185;48.526;9.044;2023-12-04T04:09:57;-5.95;80.19
69084;SHT31;56185;48.526;9.044;2023-12-04T04:12:22;-5.97;80.65
69084;SHT31;56185;48.526;9.044;2023-12-04T04:14:47;-5.97;81.52
69084;SHT31;56185;48.526;9.044;2023-12-04T04:17:13;-5.95;80.58
69084;SHT31;56185;48.526;9.044;2023-12-04T04:19:38;-6.03;80.88
69084;SHT31;56185;48.526;9.044;2023-12-04T04:22:03;-5.93;80.28
69084;SHT31;56185;48.526;9.044;2023-12-04T04:24:29;-6.01;81.43
69084;SHT31;56185;48.526;9.044;2023-12-04T04:26:54;-5.93;80.77
69084;SHT31;56185;48.526;9.044;2023-12-04T04:29:19;-5.83;81.16
69084;SHT31;56185;48.526;9.044;2023-12-04T04:31:44;-6.07;81.05
69084;SHT31;56185;48.526;9.044;2023-12-04T04:34:10;-6.01;80.77
69084;SHT31;56185;48.526;9.044;2023-12-04T04:36:35;-6.10;81.03
69084;SHT31;56185;48.526;9.044;2023-12-04T04:39:00;-6.04;81.06
69084;SHT31;56185;48.526;9.044;2023-12-04T04:41:25;-6.12;82.18
69084;SHT31;56185;48.526;9.044;2023-12-04T04:43:51;-6.05;81.06
69084;SHT31;56185;48.526;9.044;2023-12-04T04:46:16;-6.14;81.18
69084;SHT31;56185;48.526;9.044;2023-12-04T04:48:41;-6.08;82.02
69084;SHT31;56185;48.526;9.044;2023-12-04T04:51:06;-6.01;82.26
69084;SHT31;56185;48.526;9.044;2023-12-04T04:53:32;-5.86;81.71
69084;SHT31;56185;48.526;9.044;2023-12-04T04:55:57;-6.10;81.80
69084;SHT31;56185;48.526;9.044;2023-12-04T04:58:29;-5.80;82.25
69084;SHT31;56185;48.526;9.044;2023-12-04T05:00:54;-5.73;82.11
69084;SHT31;56185;48.526;9.044;2023-12-04T05:03:20;-5.94;81.62
69084;SHT31;56185;48.526;9.044;2023-12-04T05:05:45;-5.80;82.01
69084;SHT31;56185;48.526;9.044;2023-12-04T05:08:10;-5.81;81.01
69084;SHT31;56185;48.526;9.044;2023-12-04T05:10:38;-5.73;80.46
69084;SHT31;56185;48.526;9.044;2023-12-04T05:13:03;-5.72;80.53
69084;SHT31;56185;48.526;9.044;2023-12-04T05:15:28;-5.80;80.36
69084;SHT31;56185;48.526;9.044;2023-12-04T05:17:55;-5.97;81.35
69084;SHT31;56185;48.526;9.044;2023-12-04T05:20:22;-6.08;83.21
69084;SHT31;56185;48.526;9.044;2023-12-04T05:22:48;-6.18;83.97
69084;SHT31;56185;48.526;9.044;2023-12-04T05:25:14;-6.00;83.92
69084;SHT31;56185;48.526;9.044;2023-12-04T05:27:39;-5.95;83.60
69084;SHT31;56185;48.526;9.044;2023-12-04T05:30:05;-5.94;83.52
69084;SHT31;56185;48.526;9.044;2023-12-04T05:32:30;-5.93;84.18
69084;SHT31;56185;48.526;9.044;2023-12-04T05:34:55;-5.72;82.53
69084;SHT31;56185;48.526;9.044;2023-12-04T05:37:20;-5.70;82.38
69084;SHT31;56185;48.526;9.044;2023-12-04T05:39:46;-5.69;82.28
69084;SHT31;56185;48.526;9.044;2023-12-04T05:42:11;-5.64;83.05
69084;SHT31;56185;48.526;9.044;2023-12-04T05:44:36;-5.53;82.52
69084;SHT31;56185;48.526;9.044;2023-12-04T05:47:01;-5.52;82.59
69084;SHT31;56185;48.526;9.044;2023-12-04T05:49:28;-5.53;81.58
69084;SHT31;56185;48.526;9.044;2023-12-04T05:51:53;-5.48;81.64
69084;SHT31;56185;48.526;9.044;2023-12-04T05:54:18;-5.44;82.15
69084;SHT31;56185;48.526;9.044;2023-12-04T05:56:43;-5.44;82.32
69084;SHT31;56185;48.526;9.044;2023-12-04T05:59:09;-5.40;82.59
69084;SHT31;56185;48.526;9.044;2023-12-04T06:01:34;-5.29;82.47
69084;SHT31;56185;48.526;9.044;2023-12-04T06:03:59;-5.26;82.31
69084;SHT31;56185;48.526;9.044;2023-12-04T06:06:24;-5.33;82.09
69084;SHT31;56185;48.526;9.044;2023-12-04T06:08:50;-5.29;82.26
69084;SHT31;56185;48.526;9.044;2023-12-04T06:11:15;-5.36;82.22
69084;SHT31;56185;48.526;9.044;2023-12-04T06:13:40;-5.42;81.41
69084;SHT31;56185;48.526;9.044;2023-12-04T06:16:06;-5.31;82.27
69084;SHT31;56185;48.526;9.044;2023-12-04T06:18:31;-5.32;81.67
69084;SHT31;56185;48.526;9.044;2023-12-04T06:20:57;-5.25;82.18
69084;SHT31;56185;48.526;9.044;2023-12-04T06:23:22;-5.23;81.50
69084;SHT31;56185;48.526;9.044;2023-12-04T06:25:48;-5.19;81.59
69084;SHT31;56185;48.526;9.044;2023-12-04T06:28:13;-5.21;80.94
69084;SHT31;56185;48.526;9.044;2023-12-04T06:30:40;-5.21;81.02
69084;SHT31;56185;48.526;9.044;2023-12-04T06:33:05;-5.35;81.37
69084;SHT31;56185;48.526;9.044;2023-12-04T06:35:31;-5.32;82.15
69084;SHT31;56185;48.526;9.044;2023-12-04T06:38:00;-5.38;81.51
69084;SHT31;56185;48.526;9.044;2023-12-04T06:40:29;-5.36;81.52
69084;SHT31;56185;48.526;9.044;2023-12-04T06:42:59;-5.43;81.51
69084;SHT31;56185;48.526;9.044;2023-12-04T06:45:24;-5.55;82.28
69084;SHT31;56185;48.526;9.044;2023-12-04T06:47:50;-5.44;82.02
69084;SHT31;56185;48.526;9.044;2023-12-04T06:50:16;-5.33;82.07
69084;SHT31;56185;48.526;9.044;2023-12-04T06:52:42;-5.35;81.46
69084;SHT31;56185;48.526;9.044;2023-12-04T06:55:07;-5.35;82.47
69084;SHT31;56185;48.526;9.044;2023-12-04T06:57:33;-5.23;81.73
69084;SHT31;56185;48.526;9.044;2023-12-04T06:59:58;-5.05;82.56
69084;SHT31;56185;48.526;9.044;2023-12-04T07:02:23;-5.14;82.46
69084;SHT31;56185;48.526;9.044;2023-12-04T07:04:49;-5.19;83.15
69084;SHT31;56185;48.526;9.044;2023-12-04T07:07:20;-5.08;81.91
69084;SHT31;56185;48.526;9.044;2023-12-04T07:09:47;-5.01;82.16
69084;SHT31;56185;48.526;9.044;2023-12-04T07:12:12;-5.02;82.23
69084;SHT31;56185;48.526;9.044;2023-12-04T07:14:37;-5.12;82.95
69084;SHT31;56185;48.526;9.044;2023-12-04T07:17:03;-5.02;81.57
69084;SHT31;56185;48.526;9.044;2023-12-04T07:19:41;-4.98;81.45
69084;SHT31;56185;48.526;9.044;2023-12-04T07:22:06;-5.07;81.94
69084;SHT31;56185;48.526;9.044;2023-12-04T07:24:31;-4.98;83.50
69084;SHT31;56185;48.526;9.044;2023-12-04T07:26:57;-5.05;82.31
69084;SHT31;56185;48.526;9.044;2023-12-04T07:29:22;-4.98;83.15
69084;SHT31;56185;48.526;9.044;2023-12-04T07:31:48;-4.94;83.00
69084;SHT31;56185;48.526;9.044;2023-12-04T07:34:19;-4.95;83.38
69084;SHT31;56185;48.526;9.044;2023-12-04T07:36:44;-4.81;83.20
69084;SHT31;56185;48.526;9.044;2023-12-04T07:39:10;-4.71;81.92
69084;SHT31;56185;48.526;9.044;2023-12-04T07:41:36;-4.79;81.82
69084;SHT31;56185;48.526;9.044;2023-12-04T07:44:01;-4.76;81.72
69084;SHT31;56185;48.526;9.044;2023-12-04T07:46:26;-4.73;83.00
69084;SHT31;56185;48.526;9.044;2023-12-04T07:48:52;-4.71;82.17
69084;SHT31;56185;48.526;9.044;2023-12-04T07:51:17;-4.53;83.79
69084;SHT31;56185;48.526;9.044;2023-12-04T07:53:42;-4.64;83.61
69084;SHT31;56185;48.526;9.044;2023-12-04T07:56:08;-4.63;82.23
69084;SHT31;56185;48.526;9.044;2023-12-04T07:58:33;-4.54;82.12
69084;SHT31;56185;48.526;9.044;2023-12-04T08:00:59;-4.56;81.95
69084;SHT31;56185;48.526;9.044;2023-12-04T08:03:24;-4.60;83.23
69084;SHT31;56185;48.526;9.044;2023-12-04T08:05:52;-4.60;83.80
69084;SHT31;56185;48.526;9.044;2023-12-04T08:08:18;-4.52;83.04
69084;SHT31;56185;48.526;9.044;2023-12-04T08:10:43;-4.54;83.13
69084;SHT31;56185;48.526;9.044;2023-12-04T08:13:08;-4.56;82.40
69084;SHT31;56185;48.526;9.044;2023-12-04T08:15:33;-4.79;83.17
69084;SHT31;56185;48.526;9.044;2023-12-04T08:17:59;-4.74;82.87
69084;SHT31;56185;48.526;9.044;2023-12-04T08:20:24;-4.64;83.69
69084;SHT31;56185;48.526;9.044;2023-12-04T08:22:49;-4.56;83.16
69084;SHT31;56185;48.526;9.044;2023-12-04T08:25:15;-4.52;83.55
69084;SHT31;56185;48.526;9.044;2023-12-04T08:27:40;-4.54;82.45
69084;SHT31;56185;48.526;9.044;2023-12-04T08:30:06;-4.60;82.37
69084;SHT31;56185;48.526;9.044;2023-12-04T08:32:31;-4.49;83.22
69084;SHT31;56185;48.526;9.044;2023-12-04T08:34:56;-4.39;82.98
69084;SHT31;56185;48.526;9.044;2023-12-04T08:37:22;-4.39;81.93
69084;SHT31;56185;48.526;9.044;2023-12-04T08:39:47;-4.33;83.02
69084;SHT31;56185;48.526;9.044;2023-12-04T08:42:12;-4.26;83.06
69084;SHT31;56185;48.526;9.044;2023-12-04T08:44:38;-4.23;83.29
69084;SHT31;56185;48.526;9.044;2023-12-04T08:47:04;-4.13;83.84
69084;SHT31;56185;48.526;9.044;2023-12-04T08:49:30;-4.08;84.31
69084;SHT31;56185;48.526;9.044;2023-12-04T08:51:55;-4.06;83.53
69084;SHT31;56185;48.526;9.044;2023-12-04T08:54:20;-4.09;82.97
69084;SHT31;56185;48.526;9.044;2023-12-04T08:56:45;-4.09;84.19
69084;SHT31;56185;48.526;9.044;2023-12-04T08:59:11;-4.11;83.53
69084;SHT31;56185;48.526;9.044;2023-12-04T09:01:36;-3.99;83.42
69084;SHT31;56185;48.526;9.044;2023-12-04T09:04:01;-3.85;84.46
69084;SHT31;56185;48.526;9.044;2023-12-04T09:06:27;-3.74;83.99
69084;SHT31;56185;48.526;9.044;2023-12-04T09:08:52;-3.77;83.54
69084;SHT31;56185;48.526;9.044;2023-12-04T09:11:17;-3.63;84.07
69084;SHT31;56185;48.526;9.044;2023-12-04T09:13:43;-3.57;83.65
69084;SHT31;56185;48.526;9.044;2023-12-04T09:16:08;-3.59;83.42
69084;SHT31;56185;48.526;9.044;2023-12-04T09:18:33;-3.66;82.58
69084;SHT31;56185;48.526;9.044;2023-12-04T09:20:58;-3.59;82.96
69084;SHT31;56185;48.526;9.044;2023-12-04T09:23:24;-3.66;82.72
69084;SHT31;56185;48.526;9.044;2023-12-04T09:25:49;-3.57;82.20
69084;SHT31;56185;48.526;9.044;2023-12-04T09:28:14;-3.50;82.70
69084;SHT31;56185;48.526;9.044;2023-12-04T09:30:39;-3.47;84.46
69084;SHT31;56185;48.526;9.044;2023-12-04T09:33:05;-3.39;83.77
69084;SHT31;56185;48.526;9.044;2023-12-04T09:35:30;-3.38;82.94
69084;SHT31;56185;48.526;9.044;2023-12-04T09:37:55;-3.61;82.94
69084;SHT31;56185;48.526;9.044;2023-12-04T09:40:20;-3.46;84.12
69084;SHT31;56185;48.526;9.044;2023-12-04T09:42:46;-3.43;83.14
69084;SHT31;56185;48.526;9.044;2023-12-04T09:45:12;-3.49;82.72
69084;SHT31;56185;48.526;9.044;2023-12-04T09:47:37;-3.47;83.36
69084;SHT31;56185;48.526;9.044;2023-12-04T09:50:03;-3.42;84.62
69084;SHT31;56185;48.526;9.044;2023-12-04T09:52:30;-3.43;83.26
69084;SHT31;56185;48.526;9.044;2023-12-04T09:54:55;-3.32;83.81
69084;SHT31;56185;48.526;9.044;2023-12-04T09:57:22;-3.23;83.77
69084;SHT31;56185;48.526;9.044;2023-12-04T09:59:48;-3.22;83.80
69084;SHT31;56185;48.526;9.044;2023-12-04T10:02:14;-3.23;83.58
69084;SHT31;56185;48.526;9.044;2023-12-04T10:04:40;-3.26;83.41
69084;SHT31;56185;48.526;9.044;2023-12-04T10:07:06;-3.32;82.98
69084;SHT31;56185;48.526;9.044;2023-12-04T10:09:33;-3.24;83.53
69084;SHT31;56185;48.526;9.044;2023-12-04T10:11:59;-3.11;83.88
69084;SHT31;56185;48.526;9.044;2023-12-04T10:14:24;-3.13;83.60
69084;SHT31;56185;48.526;9.044;2023-12-04T10:16:49;-3.03;83.53
69084;SHT31;56185;48.526;9.044;2023-12-04T10:19:26;-2.99;83.87
69084;SHT31;56185;48.526;9.044;2023-12-04T10:21:52;-2.78;84.09
69084;SHT31;56185;48.526;9.044;2023-12-04T10:26:53;-2.74;82.65
69084;SHT31;56185;48.526;9.044;2023-12-04T10:29:22;-2.82;82.67
69084;SHT31;56185;48.526;9.044;2023-12-04T10:31:48;-2.70;82.67
69084;SHT31;56185;48.526;9.044;2023-12-04T10:34:14;-2.64;83.53
69084;SHT31;56185;48.526;9.044;2023-12-04T10:36:40;-2.62;84.01
69084;SHT31;56185;48.526;9.044;2023-12-04T10:39:05;-2.50;83.77
69084;SHT31;56185;48.526;9.044;2023-12-04T10:41:30;-2.41;83.54
69084;SHT31;56185;48.526;9.044;2023-12-04T10:43:55;-2.58;84.57
69084;SHT31;56185;48.526;9.044;2023-12-04T10:46:21;-2.36;84.51
69084;SHT31;56185;48.526;9.044;2023-12-04T10:48:47;-2.19;85.07
69084;SHT31;56185;48.526;9.044;2023-12-04T10:51:13;-1.99;83.56
69084;SHT31;56185;48.526;9.044;2023-12-04T10:53:40;-1.93;84.46
69084;SHT31;56185;48.526;9.044;2023-12-04T10:56:06;-1.85;84.39
69084;SHT31;56185;48.526;9.044;2023-12-04T10:58:32;-1.82;82.10
69084;SHT31;56185;48.526;9.044;2023-12-04T11:00:58;-1.85;83.52
69084;SHT31;56185;48.526;9.044;2023-12-04T11:03:28;-1.77;82.13
69084;SHT31;56185;48.526;9.044;2023-12-04T11:06:02;-1.78;82.75
69084;SHT31;56185;48.526;9.044;2023-12-04T11:08:32;-1.86;81.30
69084;SHT31;56185;48.526;9.044;2023-12-04T11:13:27;-1.88;82.35
69084;SHT31;56185;48.526;9.044;2023-12-04T11:15:52;-1.83;83.39
69084;SHT31;56185;48.526;9.044;2023-12-04T11:18:21;-1.82;83.76
69084;SHT31;56185;48.526;9.044;2023-12-04T11:20:51;-1.81;83.78
69084;SHT31;56185;48.526;9.044;2023-12-04T11:23:19;-1.67;83.64
69084;SHT31;56185;48.526;9.044;2023-12-04T11:25:45;-1.54;83.01
69084;SHT31;56185;48.526;9.044;2023-12-04T11:28:11;-1.39;83.01
69084;SHT31;56185;48.526;9.044;2023-12-04T11:30:37;-1.39;82.61
69084;SHT31;56185;48.526;9.044;2023-12-04T11:33:04;-1.33;84.40
69084;SHT31;56185;48.526;9.044;2023-12-04T11:35:30;-1.19;84.23
69084;SHT31;56185;48.526;9.044;2023-12-04T11:37:55;-1.17;84.06
69084;SHT31;56185;48.526;9.044;2023-12-04T11:40:20;-1.07;84.01
69084;SHT31;56185;48.526;9.044;2023-12-04T11:42:45;-1.14;84.77
69084;SHT31;56185;48.526;9.044;2023-12-04T11:45:18;-1.02;84.82
69084;SHT31;56185;48.526;9.044;2023-12-04T11:47:56;-1.07;85.11
69084;SHT31;56185;48.526;9.044;2023-12-04T11:50:24;-0.96;85.33
69084;SHT31;56185;48.526;9.044;2023-12-04T11:52:49;-0.88;84.75
69084;SHT31;56185;48.526;9.044;2023-12-04T11:55:23;-0.78;84.11
69084;SHT31;56185;48.526;9.044;2023-12-04T11:57:51;-0.82;83.48
69084;SHT31;56185;48.526;9.044;2023-12-04T12:02:50;-0.81;82.54
69084;SHT31;56185;48.526;9.044;2023-12-04T12:05:25;-0.78;82.47
69084;SHT31;56185;48.526;9.044;2023-12-04T12:07:50;-0.81;82.53
69084;SHT31;56185;48.526;9.044;2023-12-04T12:10:16;-0.73;82.99
69084;SHT31;56185;48.526;9.044;2023-12-04T12:12:44;-0.81;82.81
69084;SHT31;56185;48.526;9.044;2023-12-04T12:15:10;-0.69;83.28
69084;SHT31;56185;48.526;9.044;2023-12-04T12:17:40;-0.69;82.76
69084;SHT31;56185;48.526;9.044;2023-12-04T12:20:09;-0.62;82.48
69084;SHT31;56185;48.526;9.044;2023-12-04T12:22:36;-0.60;81.43
69084;SHT31;56185;48.526;9.044;2023-12-04T12:25:06;-0.58;82.46
69084;SHT31;56185;48.526;9.044;2023-12-04T12:27:32;-0.58;82.35
69084;SHT31;56185;48.526;9.044;2023-12-04T12:29:57;-0.51;82.76
69084;SHT31;56185;48.526;9.044;2023-12-04T12:32:23;-0.52;83.64
69084;SHT31;56185;48.526;9.044;2023-12-04T12:34:48;-0.50;84.23
69084;SHT31;56185;48.526;9.044;2023-12-04T12:37:14;-0.48;82.74
69084;SHT31;56185;48.526;9.044;2023-12-04T12:39:40;-0.44;82.37
69084;SHT31;56185;48.526;9.044;2023-12-04T12:42:05;-0.47;82.66
69084;SHT31;56185;48.526;9.044;2023-12-04T12:44:38;-0.52;83.63
69084;SHT31;56185;48.526;9.044;2023-12-04T12:47:05;-0.57;83.26
69084;SHT31;56185;48.526;9.044;2023-12-04T12:49:31;-0.51;83.30
69084;SHT31;56185;48.526;9.044;2023-12-04T12:51:56;-0.47;84.19
69084;SHT31;56185;48.526;9.044;2023-12-04T12:54:23;-0.55;84.66
69084;SHT31;56185;48.526;9.044;2023-12-04T12:56:49;-0.42;84.05
69084;SHT31;56185;48.526;9.044;2023-12-04T12:59:15;-0.42;83.96
69084;SHT31;56185;48.526;9.044;2023-12-04T13:01:41;-0.52;84.50
69084;SHT31;56185;48.526;9.044;2023-12-04T13:04:06;-0.65;84.37
69084;SHT31;56185;48.526;9.044;2023-12-04T13:06:32;-0.62;84.21
69084;SHT31;56185;48.526;9.044;2023-12-04T13:08:57;-0.61;83.92
69084;SHT31;56185;48.526;9.044;2023-12-04T13:11:22;-0.62;83.61
69084;SHT31;56185;48.526;9.044;2023-12-04T13:13:47;-0.86;84.01
69084;SHT31;56185;48.526;9.044;2023-12-04T13:16:13;-0.75;85.02
69084;SHT31;56185;48.526;9.044;2023-12-04T13:18:38;-0.68;84.79
69084;SHT31;56185;48.526;9.044;2023-12-04T13:21:04;-0.79;84.52
69084;SHT31;56185;48.526;9.044;2023-12-04T13:23:29;-0.65;84.96
69084;SHT31;56185;48.526;9.044;2023-12-04T13:25:55;-0.50;84.29
69084;SHT31;56185;48.526;9.044;2023-12-04T13:28:20;-0.48;83.44
69084;SHT31;56185;48.526;9.044;2023-12-04T13:30:46;-0.51;83.39
69084;SHT31;56185;48.526;9.044;2023-12-04T13:33:11;-0.64;82.22
69084;SHT31;56185;48.526;9.044;2023-12-04T13:35:36;-0.62;82.52
69084;SHT31;56185;48.526;9.044;2023-12-04T13:38:01;-0.65;83.59
69084;SHT31;56185;48.526;9.044;2023-12-04T13:40:27;-0.72;84.01
69084;SHT31;56185;48.526;9.044;2023-12-04T13:42:53;-0.78;84.28
69084;SHT31;56185;48.526;9.044;2023-12-04T13:45:18;-0.76;84.76
69084;SHT31;56185;48.526;9.044;2023-12-04T13:47:43;-0.82;85.02
69084;SHT31;56185;48.526;9.044;2023-12-04T13:50:09;-0.85;85.53
69084;SHT31;56185;48.526;9.044;2023-12-04T13:52:35;-0.72;85.34
69084;SHT31;56185;48.526;9.044;2023-12-04T13:55:01;-0.66;85.23
69084;SHT31;56185;48.526;9.044;2023-12-04T13:57:26;-0.79;85.59
69084;SHT31;56185;48.526;9.044;2023-12-04T13:59:51;-0.60;85.34
69084;SHT31;56185;48.526;9.044;2023-12-04T14:02:17;-0.47;84.92
69084;SHT31;56185;48.526;9.044;2023-12-04T14:04:42;-0.57;84.97
69084;SHT31;56185;48.526;9.044;2023-12-04T14:07:07;-0.57;84.90
69084;SHT31;56185;48.526;9.044;2023-12-04T14:09:32;-0.61;85.01
69084;SHT31;56185;48.526;9.044;2023-12-04T14:11:58;-0.85;85.34
69084;SHT31;56185;48.526;9.044;2023-12-04T14:14:23;-0.54;85.36
69084;SHT31;56185;48.526;9.044;2023-12-04T14:16:48;-0.38;85.20
69084;SHT31;56185;48.526;9.044;2023-12-04T14:19:14;-0.35;85.24
69084;SHT31;56185;48.526;9.044;2023-12-04T14:21:39;-0.35;85.21
69084;SHT31;56185;48.526;9.044;2023-12-04T14:24:04;-0.31;84.71
69084;SHT31;56185;48.526;9.044;2023-12-04T14:26:30;-0.48;84.60
69084;SHT31;56185;48.526;9.044;2023-12-04T14:28:55;-0.50;84.71
69084;SHT31;56185;48.526;9.044;2023-12-04T14:31:20;-0.50;85.49
69084;SHT31;56185;48.526;9.044;2023-12-04T14:33:46;-0.42;84.56
69084;SHT31;56185;48.526;9.044;2023-12-04T14:36:11;-0.40;84.66
69084;SHT31;56185;48.526;9.044;2023-12-04T14:38:36;-0.34;84.81
69084;SHT31;56185;48.526;9.044;2023-12-04T14:41:01;-0.25;84.71
69084;SHT31;56185;48.526;9.044;2023-12-04T14:43:27;-0.25;84.29
69084;SHT31;56185;48.526;9.044;2023-12-04T14:45:52;-0.38;84.91
69084;SHT31;56185;48.526;9.044;2023-12-04T14:48:17;-0.35;84.94
69084;SHT31;56185;48.526;9.044;2023-12-04T14:50:43;-0.23;84.91
69084;SHT31;56185;48.526;9.044;2023-12-04T14:53:08;-0.25;85.15
69084;SHT31;56185;48.526;9.044;2023-12-04T14:55:33;-0.24;85.62
69084;SHT31;56185;48.526;9.044;2023-12-04T14:58:01;-0.21;85.48
69084;SHT31;56185;48.526;9.044;2023-12-04T15:00:28;-0.17;85.67
69084;SHT31;56185;48.526;9.044;2023-12-04T15:02:53;-0.17;85.58
69084;SHT31;56185;48.526;9.044;2023-12-04T15:05:18;-0.11;85.62
69084;SHT31;56185;48.526;9.044;2023-12-04T15:07:43;-0.09;85.30
69084;SHT31;56185;48.526;9.044;2023-12-04T15:10:09;-0.11;85.46
69084;SHT31;56185;48.526;9.044;2023-12-04T15:12:34;-0.09;85.83
69084;SHT31;56185;48.526;9.044;2023-12-04T15:14:59;-0.03;85.16
69084;SHT31;56185;48.526;9.044;2023-12-04T15:17:25;-0.09;85.20
69084;SHT31;56185;48.526;9.044;2023-12-04T15:19:50;-0.02;85.12
69084;SHT31;56185;48.526;9.044;2023-12-04T15:22:15;-0.11;85.01
69084;SHT31;56185;48.526;9.044;2023-12-04T15:24:40;-0.09;84.96
69084;SHT31;56185;48.526;9.044;2023-12-04T15:27:06;-0.20;84.88
69084;SHT31;56185;48.526;9.044;2023-12-04T15:29:31;-0.14;85.10